Time;durP1;ratioP1;P1;durP2;ratioP2;P2;SDS_P1;SDS_P2;PMS_P1;PMS_P2;Temp;Humidity;BMP_temperature;BMP_pressure;BME280_temperature;BME280_humidity;BME280_pressure;Samples;Min_cycle;Max_cycle;Signal;HPM_P1;HPM_P2
2022/11/07 00:02:25;;;;;;;10.32;7.22;;;8.60;99.90;;;;;;5040014;28;20075;-87
2022/11/07 00:04:51;;;;;;;11.55;7.50;;;8.60;99.90;;;;;;5036997;28;20072;-84
2022/11/07 00:07:16;;;;;;;13.18;8.48;;;8.60;99.90;;;;;;5053255;28;20029;-86
2022/11/07 00:09:42;;;;;;;10.98;7.43;;;8.50;99.90;;;;;;5040309;28;20124;-87
2022/11/07 00:12:07;;;;;;;10.70;6.85;;;8.60;99.90;;;;;;5052661;28;20048;-86
2022/11/07 00:14:33;;;;;;;12.30;8.02;;;8.60;99.90;;;;;;5040315;28;20116;-86
2022/11/07 00:16:59;;;;;;;12.48;7.60;;;8.60;99.90;;;;;;5050823;28;20110;-88
2022/11/07 00:19:27;;;;;;;12.98;8.55;;;8.50;99.90;;;;;;5040458;28;20021;-82
2022/11/07 00:21:53;;;;;;;15.75;7.43;;;8.50;99.90;;;;;;5042722;28;20028;-87
2022/11/07 00:24:19;;;;;;;12.25;7.68;;;8.50;99.90;;;;;;5047778;28;20032;-87
2022/11/07 00:26:45;;;;;;;12.20;7.15;;;8.50;99.90;;;;;;5038776;28;20029;-86
2022/11/07 00:29:15;;;;;;;9.43;7.30;;;8.40;99.90;;;;;;5045388;28;20521;-86
2022/11/07 00:31:41;;;;;;;12.00;6.55;;;8.40;99.90;;;;;;5041770;28;20037;-86
2022/11/07 00:34:06;;;;;;;12.25;7.40;;;8.40;99.90;;;;;;5054961;28;20052;-85
2022/11/07 00:36:32;;;;;;;13.48;7.95;;;8.40;99.90;;;;;;5046158;28;20299;-83
2022/11/07 00:38:58;;;;;;;13.43;7.18;;;8.50;99.90;;;;;;5044885;28;20056;-85
2022/11/07 00:41:24;;;;;;;12.45;7.20;;;8.50;99.90;;;;;;5045337;28;20065;-84
2022/11/07 00:43:50;;;;;;;10.65;5.97;;;8.50;99.90;;;;;;5052715;28;20057;-83
2022/11/07 00:46:18;;;;;;;9.80;6.88;;;8.50;99.90;;;;;;5048471;28;20031;-84
2022/11/07 00:48:44;;;;;;;7.82;5.78;;;8.50;99.90;;;;;;5047562;28;20028;-86
2022/11/07 00:51:12;;;;;;;10.70;7.13;;;8.50;99.90;;;;;;5034937;28;20040;-86
2022/11/07 00:53:38;;;;;;;11.18;7.28;;;8.50;99.90;;;;;;5039486;28;20123;-87
2022/11/07 00:56:10;;;;;;;12.63;6.60;;;8.40;99.90;;;;;;5034640;28;20028;-82
2022/11/07 00:58:36;;;;;;;10.40;6.35;;;8.50;99.90;;;;;;5053358;28;20497;-87
2022/11/07 01:01:19;;;;;;;9.70;6.43;;;8.50;99.90;;;;;;5050520;28;20033;-86
2022/11/07 01:06:32;;;;;;;8.05;5.43;;;8.40;99.90;;;;;;5055022;28;20040;-88
2022/11/07 01:08:58;;;;;;;9.90;6.20;;;8.40;99.90;;;;;;5039126;28;20108;-87
2022/11/07 01:11:25;;;;;;;7.25;5.60;;;8.40;99.90;;;;;;5042127;28;20136;-85
2022/11/07 01:14:03;;;;;;;6.95;5.07;;;8.40;99.90;;;;;;5048602;28;20115;-84
2022/11/07 01:16:30;;;;;;;9.50;5.32;;;8.40;99.90;;;;;;5049396;28;20464;-86
2022/11/07 01:18:56;;;;;;;6.90;5.05;;;8.40;99.90;;;;;;5045952;28;20020;-85
2022/11/07 01:21:22;;;;;;;12.23;5.20;;;8.40;99.90;;;;;;5046337;28;20040;-86
2022/11/07 01:23:48;;;;;;;14.43;5.90;;;8.40;99.90;;;;;;5062081;28;20025;-86
2022/11/07 01:26:15;;;;;;;11.98;5.93;;;8.40;99.90;;;;;;5044977;28;20047;-85
2022/11/07 01:28:40;;;;;;;10.40;5.43;;;8.40;99.90;;;;;;5040044;28;20025;-84
2022/11/07 01:31:09;;;;;;;10.43;6.30;;;8.50;99.90;;;;;;5052344;28;20086;-86
2022/11/07 01:33:36;;;;;;;12.48;6.35;;;8.60;99.90;;;;;;5038761;28;20068;-82
2022/11/07 01:36:11;;;;;;;9.57;5.28;;;8.70;99.90;;;;;;5053744;28;20033;-83
2022/11/07 01:38:43;;;;;;;9.35;6.15;;;8.90;99.90;;;;;;5042095;28;20033;-85
2022/11/07 01:41:20;;;;;;;8.98;5.88;;;9.00;99.90;;;;;;5055423;28;20021;-86
2022/11/07 01:43:53;;;;;;;13.55;5.15;;;9.00;99.90;;;;;;5044518;28;20040;-88
2022/11/07 01:46:20;;;;;;;11.10;5.03;;;9.10;99.90;;;;;;5040829;28;20037;-84
2022/11/07 01:48:53;;;;;;;10.23;5.25;;;9.10;99.90;;;;;;5058240;28;20069;-87
2022/11/07 01:51:20;;;;;;;10.57;5.50;;;9.10;99.90;;;;;;5052024;28;20051;-86
2022/11/07 01:53:46;;;;;;;13.10;5.72;;;9.10;99.90;;;;;;5048208;28;20028;-82
2022/11/07 01:56:16;;;;;;;11.55;5.30;;;9.10;99.90;;;;;;5051423;28;20020;-88
2022/11/07 01:58:43;;;;;;;8.25;5.57;;;9.10;99.90;;;;;;5044505;28;20056;-87
2022/11/07 02:01:09;;;;;;;6.95;5.00;;;9.10;99.90;;;;;;5043240;28;20029;-93
2022/11/07 02:03:35;;;;;;;7.35;5.10;;;9.10;99.90;;;;;;5048762;28;20397;-86
2022/11/07 02:06:05;;;;;;;6.55;4.82;;;9.10;99.90;;;;;;5046910;28;20028;-89
2022/11/07 02:08:35;;;;;;;8.35;4.82;;;9.10;99.90;;;;;;5041910;28;20035;-80
2022/11/07 02:11:02;;;;;;;11.38;5.03;;;9.10;99.90;;;;;;5051334;28;20064;-92
2022/11/07 02:13:30;;;;;;;12.73;5.60;;;9.10;99.90;;;;;;5048579;28;20037;-94
2022/11/07 02:16:02;;;;;;;13.32;5.53;;;9.10;99.90;;;;;;5038126;28;20462;-91
2022/11/07 02:18:28;;;;;;;8.05;5.10;;;9.10;99.90;;;;;;5045150;28;20033;-89
2022/11/07 02:21:00;;;;;;;12.73;5.15;;;9.20;99.90;;;;;;5042319;28;20031;-88
2022/11/07 02:23:34;;;;;;;7.30;4.82;;;9.20;99.90;;;;;;5037426;28;20113;-91
2022/11/07 02:25:59;;;;;;;14.88;5.38;;;9.20;99.90;;;;;;5039005;28;20032;-90
2022/11/07 02:28:27;;;;;;;8.32;5.20;;;9.20;99.90;;;;;;5043143;28;20470;-90
2022/11/07 02:30:53;;;;;;;6.95;4.28;;;9.20;99.90;;;;;;5040645;28;20037;-87
2022/11/07 02:33:20;;;;;;;11.52;5.00;;;9.20;99.90;;;;;;5040551;28;20107;-86
2022/11/07 02:35:48;;;;;;;8.70;4.75;;;9.20;99.90;;;;;;5042360;28;20018;-84
2022/11/07 02:38:31;;;;;;;7.88;4.82;;;9.20;99.90;;;;;;5032377;28;20313;-88
2022/11/07 02:41:05;;;;;;;10.65;4.53;;;9.20;99.90;;;;;;5040489;28;20037;-92
2022/11/07 02:43:33;;;;;;;7.95;4.07;;;9.20;99.90;;;;;;5041957;28;20442;-92
2022/11/07 02:46:03;;;;;;;6.78;5.40;;;9.20;99.90;;;;;;5047369;28;20195;-87
2022/11/07 02:48:30;;;;;;;8.25;4.80;;;9.30;99.90;;;;;;5030575;28;20417;-86
2022/11/07 02:50:56;;;;;;;9.82;4.47;;;9.30;99.90;;;;;;5044105;28;20024;-91
2022/11/07 02:53:22;;;;;;;7.43;4.03;;;9.30;99.90;;;;;;5042461;28;20477;-85
2022/11/07 02:55:48;;;;;;;11.60;4.68;;;9.20;99.90;;;;;;5043468;28;20029;-91
2022/11/07 02:58:13;;;;;;;7.82;4.50;;;9.30;99.90;;;;;;5027710;28;20060;-89
2022/11/07 03:00:39;;;;;;;11.02;5.57;;;9.30;99.90;;;;;;5048644;28;20056;-90
2022/11/07 03:03:05;;;;;;;21.42;5.00;;;9.30;99.90;;;;;;5045220;28;20025;-86
2022/11/07 03:05:31;;;;;;;11.23;5.22;;;9.30;99.90;;;;;;5042563;28;20473;-93
2022/11/07 03:07:57;;;;;;;12.38;5.63;;;9.40;99.90;;;;;;5037459;28;20034;-85
2022/11/07 03:10:22;;;;;;;8.50;4.57;;;9.30;99.90;;;;;;5045596;28;20055;-88
2022/11/07 03:12:48;;;;;;;7.70;4.70;;;9.30;99.90;;;;;;5047736;28;20057;-92
2022/11/07 03:15:14;;;;;;;8.35;5.32;;;9.30;99.90;;;;;;5037325;28;20493;-94
2022/11/07 03:17:41;;;;;;;9.57;4.72;;;9.30;99.90;;;;;;5048028;28;20397;-83
2022/11/07 03:20:09;;;;;;;8.05;4.03;;;9.30;99.90;;;;;;5046646;28;20033;-84
2022/11/07 03:22:35;;;;;;;7.90;4.45;;;9.30;99.90;;;;;;5050509;28;20040;-86
2022/11/07 03:25:00;;;;;;;11.63;5.50;;;9.30;99.90;;;;;;5046424;28;20522;-87
2022/11/07 03:27:26;;;;;;;6.70;3.92;;;9.30;99.90;;;;;;5050633;28;20033;-88
2022/11/07 03:29:51;;;;;;;12.15;5.47;;;9.30;99.90;;;;;;5046700;28;20061;-90
2022/11/07 03:32:17;;;;;;;10.32;4.07;;;9.30;99.90;;;;;;5046514;28;20401;-89
2022/11/07 03:34:43;;;;;;;8.38;4.55;;;9.30;99.90;;;;;;5041679;28;20037;-88
2022/11/07 03:37:08;;;;;;;9.35;4.20;;;9.30;99.90;;;;;;5051614;28;20029;-89
2022/11/07 03:39:34;;;;;;;7.70;3.80;;;9.30;99.90;;;;;;5045408;28;20032;-89
2022/11/07 03:41:59;;;;;;;8.55;4.18;;;9.30;99.90;;;;;;5046881;28;20029;-91
2022/11/07 03:44:25;;;;;;;10.95;4.15;;;9.20;99.90;;;;;;5049793;28;20035;-83
2022/11/07 03:46:51;;;;;;;8.93;4.38;;;9.20;99.90;;;;;;5045919;28;20032;-91
2022/11/07 03:49:17;;;;;;;6.05;3.92;;;9.20;99.90;;;;;;5044915;28;20390;-89
2022/11/07 03:51:42;;;;;;;6.40;3.90;;;9.30;99.90;;;;;;5036539;28;20045;-86
2022/11/07 03:54:08;;;;;;;10.65;4.05;;;9.30;99.90;;;;;;5044699;28;20420;-88
2022/11/07 03:56:33;;;;;;;8.45;3.63;;;9.20;99.90;;;;;;5044991;28;20033;-90
2022/11/07 03:58:59;;;;;;;6.25;3.90;;;9.20;99.90;;;;;;5037732;28;20121;-90
2022/11/07 04:01:24;;;;;;;8.85;3.83;;;9.20;99.90;;;;;;5039856;28;20022;-90
2022/11/07 04:03:50;;;;;;;10.95;4.38;;;9.20;99.90;;;;;;5038321;28;20036;-90
2022/11/07 04:06:15;;;;;;;4.45;3.60;;;9.20;99.90;;;;;;5038312;28;20037;-94
2022/11/07 04:08:41;;;;;;;5.90;3.53;;;9.20;99.90;;;;;;5045781;28;20029;-89
2022/11/07 04:11:07;;;;;;;8.10;3.30;;;9.30;99.90;;;;;;5017839;28;20528;-87
2022/11/07 04:19:02;;;;;;;6.53;3.28;;;9.30;99.90;;;;;;5047966;28;20032;-90
2022/11/07 04:21:28;;;;;;;13.77;3.65;;;9.40;99.90;;;;;;5042381;28;20087;-93
2022/11/07 04:23:54;;;;;;;6.03;3.20;;;9.40;99.90;;;;;;5050362;28;20028;-91
2022/11/07 04:29:03;;;;;;;7.53;2.90;;;9.40;99.90;;;;;;5042427;28;20040;-92
2022/11/07 04:31:29;;;;;;;6.55;3.25;;;9.40;99.90;;;;;;5040973;28;20048;-89
2022/11/07 04:33:55;;;;;;;7.88;3.20;;;9.40;99.90;;;;;;5036742;28;20021;-92
2022/11/07 04:36:23;;;;;;;8.32;2.90;;;9.50;99.90;;;;;;5043996;28;20415;-90
2022/11/07 04:38:49;;;;;;;7.00;2.90;;;9.50;99.90;;;;;;5051129;28;20111;-90
2022/11/07 04:41:23;;;;;;;5.72;2.60;;;9.50;99.90;;;;;;5050489;28;20117;-91
2022/11/07 04:43:51;;;;;;;3.47;2.70;;;9.50;99.90;;;;;;5043383;28;20025;-91
2022/11/07 04:46:17;;;;;;;11.48;4.20;;;9.60;99.90;;;;;;5042722;28;20053;-90
2022/11/07 04:48:43;;;;;;;7.15;2.75;;;9.60;99.90;;;;;;5040809;28;20059;-95
2022/11/07 04:51:21;;;;;;;8.55;3.45;;;9.60;99.90;;;;;;5044639;28;20063;-93
2022/11/07 04:53:47;;;;;;;4.70;2.55;;;9.60;99.90;;;;;;5041839;28;20076;-91
2022/11/07 04:56:12;;;;;;;6.57;2.83;;;9.60;99.90;;;;;;5040119;28;20056;-89
2022/11/07 04:58:38;;;;;;;3.55;2.67;;;9.60;99.90;;;;;;5047012;28;20385;-91
2022/11/07 05:01:03;;;;;;;12.60;3.65;;;9.70;99.90;;;;;;5041563;28;20465;-87
2022/11/07 05:03:33;;;;;;;6.05;2.75;;;9.70;99.90;;;;;;5042093;28;20370;-82
2022/11/07 05:05:59;;;;;;;6.35;2.83;;;9.70;99.90;;;;;;5048732;28;20028;-87
2022/11/07 05:08:27;;;;;;;6.30;3.50;;;9.70;99.90;;;;;;5044199;28;20258;-89
2022/11/07 05:10:53;;;;;;;4.82;2.38;;;9.70;99.90;;;;;;5043972;28;20052;-87
2022/11/07 05:13:19;;;;;;;4.57;2.35;;;9.70;99.90;;;;;;5049072;28;20144;-90
2022/11/07 05:15:44;;;;;;;11.48;3.67;;;9.70;99.90;;;;;;5057090;28;20070;-89
2022/11/07 05:18:13;;;;;;;7.32;3.13;;;9.70;99.90;;;;;;5050331;28;20492;-91
2022/11/07 05:20:41;;;;;;;6.32;2.63;;;9.70;99.90;;;;;;5044114;28;20039;-89
2022/11/07 05:23:11;;;;;;;5.07;3.17;;;9.70;99.90;;;;;;5048814;28;20032;-88
2022/11/07 05:25:38;;;;;;;4.10;2.70;;;9.70;99.90;;;;;;5052066;28;20089;-91
2022/11/07 05:28:08;;;;;;;6.55;3.17;;;9.70;99.90;;;;;;5047708;28;20029;-87
2022/11/07 05:30:38;;;;;;;5.78;3.10;;;9.70;99.90;;;;;;5045607;28;20033;-89
2022/11/07 05:33:04;;;;;;;10.15;3.08;;;9.60;99.90;;;;;;5044122;28;20082;-87
2022/11/07 05:35:29;;;;;;;6.38;2.72;;;9.60;99.90;;;;;;5043329;28;20029;-88
2022/11/07 05:37:55;;;;;;;5.90;3.10;;;9.60;99.90;;;;;;5050290;28;20044;-91
2022/11/07 05:40:23;;;;;;;6.18;3.47;;;9.60;99.90;;;;;;5045163;28;20063;-89
2022/11/07 05:42:48;;;;;;;9.43;3.10;;;9.50;99.90;;;;;;5042071;28;20095;-88
2022/11/07 05:45:14;;;;;;;6.55;3.15;;;9.50;99.90;;;;;;5046981;28;20279;-88
2022/11/07 05:47:40;;;;;;;5.88;2.80;;;9.60;99.90;;;;;;5044229;28;20037;-84
2022/11/07 05:50:07;;;;;;;7.82;3.80;;;9.60;99.90;;;;;;5047537;28;20696;-86
2022/11/07 05:52:32;;;;;;;7.78;3.10;;;9.60;99.90;;;;;;5041989;28;20060;-88
2022/11/07 05:54:58;;;;;;;10.82;3.30;;;9.50;99.90;;;;;;5058323;28;20028;-88
2022/11/07 05:57:23;;;;;;;9.85;3.47;;;9.50;99.90;;;;;;5044826;28;20057;-87
2022/11/07 05:59:49;;;;;;;4.70;2.95;;;9.50;99.90;;;;;;5029654;28;20026;-87
2022/11/07 06:02:15;;;;;;;11.43;4.78;;;9.50;99.90;;;;;;5044484;28;20111;-89
2022/11/07 06:04:40;;;;;;;9.75;3.20;;;9.50;99.90;;;;;;5029080;28;20100;-82
2022/11/07 06:07:06;;;;;;;7.03;2.70;;;9.50;99.90;;;;;;5033418;28;20375;-86
2022/11/07 06:09:32;;;;;;;4.90;3.15;;;9.50;99.90;;;;;;5037613;28;20025;-89
2022/11/07 06:11:57;;;;;;;6.07;2.50;;;9.50;99.90;;;;;;5042922;28;20041;-88
2022/11/07 06:14:23;;;;;;;7.50;2.72;;;9.50;99.90;;;;;;5042410;28;20033;-90
2022/11/07 06:16:48;;;;;;;3.90;2.92;;;9.50;99.90;;;;;;5027726;28;20030;-87
2022/11/07 06:19:14;;;;;;;12.38;3.90;;;9.50;99.90;;;;;;5037854;28;20299;-90
2022/11/07 06:21:40;;;;;;;9.18;2.60;;;9.60;99.90;;;;;;5040951;28;20474;-91
2022/11/07 06:24:06;;;;;;;6.53;2.33;;;9.60;99.90;;;;;;5047076;28;20029;-90
2022/11/07 06:26:31;;;;;;;6.43;3.03;;;9.60;99.90;;;;;;5049645;28;20032;-87
2022/11/07 06:28:57;;;;;;;5.50;2.65;;;9.60;99.90;;;;;;5041509;28;20033;-88
2022/11/07 06:31:33;;;;;;;9.63;2.78;;;9.70;99.90;;;;;;5051106;28;20051;-92
2022/11/07 06:33:59;;;;;;;3.53;2.53;;;9.70;99.90;;;;;;5040012;28;20053;-88
2022/11/07 06:36:25;;;;;;;9.27;2.67;;;9.70;99.90;;;;;;5039308;28;20056;-92
2022/11/07 06:38:52;;;;;;;3.70;2.30;;;9.70;99.90;;;;;;5030229;28;20072;-86
2022/11/07 06:41:18;;;;;;;7.40;2.65;;;9.80;99.90;;;;;;5046041;28;20060;-94
2022/11/07 06:43:43;;;;;;;5.80;2.80;;;9.80;99.90;;;;;;5042393;28;20024;-88
2022/11/07 06:46:12;;;;;;;6.00;2.60;;;9.80;99.90;;;;;;5044908;28;20025;-90
2022/11/07 06:48:38;;;;;;;7.65;2.65;;;9.90;99.90;;;;;;5035442;28;20469;-88
2022/11/07 06:51:05;;;;;;;7.68;2.50;;;9.90;99.90;;;;;;5045892;28;20041;-88
2022/11/07 06:53:31;;;;;;;9.13;2.90;;;9.90;99.90;;;;;;5037526;28;20033;-86
2022/11/07 06:55:59;;;;;;;7.75;2.88;;;9.90;99.90;;;;;;5038604;28;20022;-89
2022/11/07 06:58:25;;;;;;;8.40;3.05;;;9.90;99.90;;;;;;5027869;28;20043;-92
2022/11/07 07:00:50;;;;;;;11.70;3.08;;;10.00;99.90;;;;;;5026152;28;20037;-91
2022/11/07 07:03:16;;;;;;;9.02;2.88;;;10.00;99.90;;;;;;5021424;28;20503;-90
2022/11/07 07:05:42;;;;;;;9.57;2.40;;;10.00;99.90;;;;;;5025897;28;20103;-87
2022/11/07 07:08:11;;;;;;;6.00;3.00;;;10.00;99.90;;;;;;5027882;28;20125;-90
2022/11/07 07:10:41;;;;;;;8.68;2.50;;;10.00;99.90;;;;;;5027966;28;20029;-88
2022/11/07 07:13:07;;;;;;;5.10;3.30;;;10.00;99.90;;;;;;5021952;28;20033;-85
2022/11/07 07:15:32;;;;;;;6.75;2.35;;;10.00;99.90;;;;;;5022311;28;20492;-93
2022/11/07 07:17:59;;;;;;;10.13;2.83;;;10.10;99.90;;;;;;5024304;28;20025;-92
2022/11/07 07:20:25;;;;;;;11.35;3.72;;;10.10;99.90;;;;;;5027818;28;20068;-89
2022/11/07 07:22:51;;;;;;;4.30;2.28;;;10.10;99.90;;;;;;5027706;28;20025;-84
2022/11/07 07:25:16;;;;;;;9.57;2.75;;;10.10;99.90;;;;;;5027900;28;20036;-92
2022/11/07 07:27:42;;;;;;;8.13;2.80;;;10.10;99.90;;;;;;5027734;28;20398;-90
2022/11/07 07:30:09;;;;;;;7.28;3.15;;;10.10;99.90;;;;;;5027766;28;20025;-93
2022/11/07 07:32:35;;;;;;;9.43;2.55;;;10.00;99.90;;;;;;5027570;28;20569;-87
2022/11/07 07:35:01;;;;;;;8.77;4.03;;;10.00;99.90;;;;;;5027638;28;20113;-91
2022/11/07 07:37:26;;;;;;;11.32;3.72;;;10.00;99.90;;;;;;5026671;28;20359;-86
2022/11/07 07:39:52;;;;;;;5.57;2.70;;;10.10;99.90;;;;;;5027759;28;20034;-89
2022/11/07 07:42:17;;;;;;;5.80;3.35;;;10.00;99.90;;;;;;5027608;28;20045;-89
2022/11/07 07:44:43;;;;;;;7.45;2.90;;;10.00;99.90;;;;;;5025798;28;20080;-91
2022/11/07 07:47:09;;;;;;;11.45;3.13;;;10.00;99.90;;;;;;5021881;28;20026;-90
2022/11/07 07:49:34;;;;;;;8.75;2.95;;;10.00;99.90;;;;;;5027808;28;20025;-91
2022/11/07 07:52:03;;;;;;;4.00;2.42;;;9.90;99.90;;;;;;5030229;28;20262;-84
2022/11/07 07:54:29;;;;;;;6.75;2.38;;;9.90;99.90;;;;;;5021772;28;20041;-92
2022/11/07 07:56:54;;;;;;;10.10;3.25;;;10.00;99.90;;;;;;5031108;28;20052;-90
2022/11/07 07:59:20;;;;;;;12.38;3.70;;;10.00;99.90;;;;;;5050526;28;20029;-89
2022/11/07 08:01:45;;;;;;;7.32;2.92;;;10.00;99.90;;;;;;5051153;28;20469;-89
2022/11/07 08:04:11;;;;;;;5.97;2.92;;;10.00;99.90;;;;;;5051097;28;20393;-85
2022/11/07 08:06:37;;;;;;;8.00;3.05;;;10.00;99.90;;;;;;5041141;28;20033;-88
2022/11/07 08:09:03;;;;;;;4.30;2.55;;;10.00;99.90;;;;;;5050994;28;20507;-92
2022/11/07 08:11:29;;;;;;;8.52;2.95;;;10.00;99.90;;;;;;5048242;28;20043;-90
2022/11/07 08:13:54;;;;;;;9.10;2.72;;;10.00;99.90;;;;;;5042754;28;20029;-91
2022/11/07 08:16:23;;;;;;;7.90;2.95;;;10.00;99.90;;;;;;5049726;28;20029;-88
2022/11/07 08:18:48;;;;;;;4.95;2.80;;;10.10;99.90;;;;;;5050002;28;20033;-93
2022/11/07 08:21:14;;;;;;;9.40;3.47;;;10.10;99.90;;;;;;5050173;28;20457;-89
2022/11/07 08:23:39;;;;;;;7.45;3.67;;;10.10;99.90;;;;;;5050442;28;20044;-92
2022/11/07 08:26:05;;;;;;;12.35;3.67;;;10.20;99.90;;;;;;5041457;28;20052;-91
2022/11/07 08:28:34;;;;;;;9.27;3.05;;;10.20;99.90;;;;;;5047854;28;20025;-90
2022/11/07 08:31:06;;;;;;;8.77;3.30;;;10.20;99.90;;;;;;5048304;28;20090;-91
2022/11/07 08:33:32;;;;;;;13.38;4.22;;;10.30;99.90;;;;;;5050723;28;20037;-89
2022/11/07 08:35:59;;;;;;;7.13;3.53;;;10.40;99.90;;;;;;5047222;28;20032;-91
2022/11/07 08:38:26;;;;;;;11.25;3.50;;;10.50;99.90;;;;;;5041232;28;20053;-88
2022/11/07 08:40:52;;;;;;;14.38;3.83;;;10.60;99.90;;;;;;5038491;28;20254;-89
2022/11/07 08:43:18;;;;;;;8.00;3.08;;;10.60;99.90;;;;;;5038982;28;20026;-90
2022/11/07 08:45:46;;;;;;;17.15;5.95;;;10.70;99.90;;;;;;5039425;28;20026;-89
2022/11/07 08:48:12;;;;;;;11.75;3.38;;;10.70;99.90;;;;;;5039504;28;20033;-91
2022/11/07 08:50:38;;;;;;;12.55;3.67;;;10.80;99.90;;;;;;5038597;28;20024;-91
2022/11/07 08:53:04;;;;;;;10.40;3.20;;;10.80;99.90;;;;;;5039536;28;20531;-90
2022/11/07 08:55:30;;;;;;;11.30;3.50;;;10.80;99.90;;;;;;5040550;28;20063;-90
2022/11/07 08:58:05;;;;;;;6.00;2.63;;;10.90;99.90;;;;;;5037946;28;20557;-91
2022/11/07 09:00:31;;;;;;;8.48;3.20;;;10.90;99.90;;;;;;5032917;28;20437;-92
2022/11/07 09:03:01;;;;;;;14.23;4.22;;;10.90;99.90;;;;;;5035188;28;20030;-89
2022/11/07 09:05:26;;;;;;;13.60;3.20;;;11.00;99.90;;;;;;5034030;28;20109;-91
2022/11/07 09:07:52;;;;;;;13.68;3.95;;;11.00;99.90;;;;;;5029740;28;20537;-86
2022/11/07 09:10:18;;;;;;;7.78;2.90;;;11.00;99.90;;;;;;5039149;28;20104;-90
2022/11/07 09:12:49;;;;;;;12.00;3.40;;;11.10;99.90;;;;;;5040266;28;20105;-93
2022/11/07 09:15:15;;;;;;;11.80;3.08;;;11.10;99.90;;;;;;5043473;28;20090;-90
2022/11/07 09:17:41;;;;;;;10.20;3.03;;;11.20;99.90;;;;;;5049869;28;20592;-91
2022/11/07 09:20:08;;;;;;;11.20;3.17;;;11.30;99.90;;;;;;5049307;28;20124;-91
2022/11/07 09:22:34;;;;;;;12.77;2.70;;;11.30;99.90;;;;;;5042990;28;20396;-92
2022/11/07 09:25:00;;;;;;;8.68;2.92;;;11.30;99.90;;;;;;5044143;28;20108;-84
2022/11/07 09:27:26;;;;;;;10.30;3.25;;;11.30;99.90;;;;;;5042375;28;20448;-90
2022/11/07 09:29:52;;;;;;;12.43;3.53;;;11.40;99.90;;;;;;5037580;28;20022;-87
2022/11/07 09:32:17;;;;;;;10.23;3.05;;;11.50;99.90;;;;;;5047187;28;20028;-88
2022/11/07 09:34:46;;;;;;;12.30;2.80;;;11.60;99.90;;;;;;5047504;28;20056;-89
2022/11/07 09:37:11;;;;;;;7.05;2.97;;;11.50;99.90;;;;;;5039796;28;20048;-89
2022/11/07 09:39:37;;;;;;;9.75;3.50;;;11.50;99.90;;;;;;5033477;28;20457;-90
2022/11/07 09:42:33;;;;;;;8.65;2.78;;;11.60;99.90;;;;;;5038152;28;20025;-89
2022/11/07 09:45:00;;;;;;;11.40;2.83;;;11.70;99.90;;;;;;5049340;28;20030;-90
2022/11/07 09:47:25;;;;;;;10.15;2.90;;;11.70;99.90;;;;;;5031094;28;20033;-91
2022/11/07 09:50:03;;;;;;;8.93;3.40;;;11.70;99.90;;;;;;5043544;28;20358;-89
2022/11/07 09:52:57;;;;;;;13.13;2.58;;;11.80;99.90;;;;;;5039662;28;20061;-90
2022/11/07 09:55:27;;;;;;;11.80;2.65;;;11.80;99.90;;;;;;5049041;28;20029;-89
2022/11/07 09:58:10;;;;;;;7.80;3.10;;;11.90;99.90;;;;;;5047229;28;20528;-90
2022/11/07 10:00:35;;;;;;;17.65;3.30;;;11.90;99.90;;;;;;5047247;28;20107;-89
2022/11/07 10:03:02;;;;;;;9.90;2.83;;;12.00;99.90;;;;;;5044028;28;20119;-90
2022/11/07 10:05:53;;;;;;;7.40;2.28;;;12.10;99.90;;;;;;5044663;28;20470;-89
2022/11/07 10:08:36;;;;;;;6.35;2.40;;;12.00;99.90;;;;;;5042739;28;20024;-87
2022/11/07 10:11:25;;;;;;;10.75;2.90;;;12.00;99.90;;;;;;5042028;28;20537;-90
2022/11/07 10:14:01;;;;;;;10.50;2.50;;;12.00;99.90;;;;;;5018702;28;20037;-91
2022/11/07 10:16:51;;;;;;;9.57;2.53;;;12.00;99.90;;;;;;5032617;28;20469;-90
2022/11/07 10:19:57;;;;;;;8.90;2.35;;;12.10;99.90;;;;;;5039537;28;20060;-92
2022/11/07 10:22:56;;;;;;;8.15;2.92;;;12.20;99.90;;;;;;5047963;28;20036;-90
2022/11/07 10:25:38;;;;;;;11.50;2.65;;;12.30;99.90;;;;;;5044476;28;20033;-91
2022/11/07 10:28:15;;;;;;;13.18;2.13;;;12.40;99.90;;;;;;5047025;28;20120;-90
2022/11/07 10:30:45;;;;;;;11.40;2.65;;;12.40;99.90;;;;;;5047800;28;20036;-88
2022/11/07 10:33:41;;;;;;;11.15;2.10;;;12.40;99.90;;;;;;5043582;28;20029;-90
2022/11/07 10:36:26;;;;;;;10.77;2.42;;;12.50;99.90;;;;;;5038441;28;20034;-88
2022/11/07 10:38:52;;;;;;;13.60;3.10;;;12.40;99.90;;;;;;5030793;28;20041;-89
2022/11/07 10:41:26;;;;;;;10.30;2.00;;;12.50;99.90;;;;;;5042679;28;20025;-91
2022/11/07 10:43:59;;;;;;;4.70;2.10;;;12.50;99.90;;;;;;5047785;28;20033;-88
2022/11/07 10:46:40;;;;;;;9.48;2.13;;;12.50;99.90;;;;;;5046599;28;20535;-89
2022/11/07 10:49:26;;;;;;;7.78;1.75;;;12.60;99.90;;;;;;5024650;28;20032;-92
2022/11/07 10:51:53;;;;;;;8.77;1.98;;;12.60;99.90;;;;;;5047279;28;20048;-87
2022/11/07 10:54:24;;;;;;;6.88;2.08;;;12.70;99.90;;;;;;5044577;28;20032;-89
2022/11/07 10:57:01;;;;;;;6.03;2.13;;;12.70;99.90;;;;;;5043104;28;20489;-89
2022/11/07 10:59:29;;;;;;;3.97;1.60;;;12.70;99.90;;;;;;5027617;28;20060;-89
2022/11/07 11:01:57;;;;;;;11.27;2.30;;;12.70;99.90;;;;;;5041341;28;20036;-90
2022/11/07 11:04:31;;;;;;;11.70;2.70;;;12.70;99.90;;;;;;5047881;28;20029;-93
2022/11/07 11:07:04;;;;;;;8.70;1.85;;;12.70;99.90;;;;;;5036405;28;20041;-91
2022/11/07 11:09:34;;;;;;;6.85;2.05;;;12.80;99.90;;;;;;5045219;28;20109;-88
2022/11/07 11:12:05;;;;;;;8.85;2.15;;;12.80;99.90;;;;;;5046039;28;20044;-90
2022/11/07 11:14:31;;;;;;;9.52;1.80;;;12.80;99.90;;;;;;5045536;28;20033;-90
2022/11/07 11:16:57;;;;;;;6.97;2.10;;;12.90;99.90;;;;;;5045234;28;20386;-91
2022/11/07 11:19:30;;;;;;;11.73;3.00;;;12.80;99.90;;;;;;5042033;28;20036;-88
2022/11/07 11:21:57;;;;;;;6.60;2.25;;;12.90;99.90;;;;;;5045747;28;20504;-87
2022/11/07 11:24:29;;;;;;;16.70;2.97;;;12.90;99.90;;;;;;5046002;28;20483;-89
2022/11/07 11:26:58;;;;;;;8.05;1.85;;;12.90;99.90;;;;;;5048930;28;20079;-88
2022/11/07 11:29:51;;;;;;;9.55;2.58;;;12.90;99.90;;;;;;5045643;28;20022;-88
2022/11/07 11:32:29;;;;;;;8.90;1.95;;;13.00;99.90;;;;;;5029951;28;20129;-89
2022/11/07 11:35:21;;;;;;;8.63;1.75;;;13.00;99.90;;;;;;5041295;28;20139;-88
2022/11/07 11:37:56;;;;;;;8.98;1.67;;;13.00;99.90;;;;;;5041153;28;20382;-88
2022/11/07 11:40:22;;;;;;;9.82;1.83;;;13.00;99.90;;;;;;5039395;28;20033;-88
2022/11/07 11:43:14;;;;;;;6.97;1.88;;;13.00;99.90;;;;;;5041007;28;20044;-90
2022/11/07 11:45:49;;;;;;;8.70;2.30;;;13.10;99.90;;;;;;5040477;28;20120;-85
2022/11/07 11:48:38;;;;;;;8.82;1.95;;;13.10;99.90;;;;;;5037134;28;20465;-91
2022/11/07 11:51:17;;;;;;;8.85;1.83;;;13.20;99.90;;;;;;5029993;28;20038;-90
2022/11/07 11:53:43;;;;;;;14.90;2.33;;;13.30;99.90;;;;;;5045276;28;20496;-89
2022/11/07 11:56:36;;;;;;;11.85;2.08;;;13.30;99.90;;;;;;5045243;28;20021;-88
2022/11/07 11:59:14;;;;;;;11.88;2.08;;;13.20;99.90;;;;;;5045087;28;20561;-90
2022/11/07 12:01:53;;;;;;;11.68;2.05;;;13.30;99.90;;;;;;5046799;28;20032;-88
2022/11/07 12:04:25;;;;;;;7.15;1.77;;;13.20;99.90;;;;;;5031289;28;20033;-87
2022/11/07 12:07:19;;;;;;;11.13;2.03;;;13.20;99.90;;;;;;5047823;28;20056;-86
2022/11/07 12:09:52;;;;;;;13.05;2.60;;;13.20;99.90;;;;;;4999934;28;20037;-90
2022/11/07 12:12:51;;;;;;;7.07;1.83;;;13.20;99.90;;;;;;5048750;28;20124;-89
2022/11/07 12:15:50;;;;;;;5.68;2.08;;;13.30;99.90;;;;;;5030244;28;20053;-87
2022/11/07 12:18:38;;;;;;;15.18;2.83;;;13.40;99.90;;;;;;5049050;28;20370;-82
2022/11/07 12:21:19;;;;;;;13.60;2.17;;;13.50;99.90;;;;;;5049683;28;20032;-87
2022/11/07 12:24:15;;;;;;;11.23;2.10;;;13.50;99.90;;;;;;5050246;28;20397;-88
2022/11/07 12:26:50;;;;;;;12.65;1.90;;;13.50;99.90;;;;;;5041976;28;20040;-84
2022/11/07 12:29:35;;;;;;;8.35;1.60;;;13.60;99.90;;;;;;5037381;28;20025;-82
2022/11/07 12:32:20;;;;;;;6.60;1.75;;;13.70;99.90;;;;;;5046603;28;20037;-86
2022/11/07 12:35:15;;;;;;;12.90;3.47;;;13.60;99.90;;;;;;5047962;28;20033;-86
2022/11/07 12:38:01;;;;;;;6.28;1.77;;;13.70;99.90;;;;;;5039114;28;20474;-86
2022/11/07 12:40:27;;;;;;;10.10;1.77;;;13.60;99.90;;;;;;5041452;28;20379;-84
2022/11/07 12:43:25;;;;;;;22.45;3.83;;;13.70;99.90;;;;;;5048714;28;20040;-85
2022/11/07 12:46:07;;;;;;;10.15;5.57;;;13.70;99.90;;;;;;5042715;28;20501;-84
2022/11/07 12:48:45;;;;;;;9.45;2.90;;;13.70;99.90;;;;;;5035684;28;20072;-86
2022/11/07 12:51:44;;;;;;;11.75;2.63;;;13.70;99.90;;;;;;5048659;28;20039;-85
2022/11/07 12:54:41;;;;;;;9.63;1.92;;;13.80;99.90;;;;;;5025613;28;20033;-83
2022/11/07 12:57:23;;;;;;;15.75;2.30;;;13.80;99.90;;;;;;4981855;28;20059;-85
2022/11/07 12:59:57;;;;;;;14.10;2.80;;;13.90;99.90;;;;;;5036882;28;20454;-82
2022/11/07 13:03:03;;;;;;;10.35;2.17;;;13.90;99.90;;;;;;5043359;28;20037;-83
2022/11/07 13:06:14;;;;;;;11.05;3.28;;;13.80;99.90;;;;;;5037701;28;20037;-89
2022/11/07 13:09:12;;;;;;;10.32;2.00;;;13.80;99.90;;;;;;5013436;28;20030;-88
2022/11/07 13:12:11;;;;;;;12.15;2.25;;;13.80;99.90;;;;;;5044507;28;20493;-86
2022/11/07 13:14:40;;;;;;;7.35;1.77;;;13.80;99.90;;;;;;5034543;28;20025;-85
2022/11/07 13:17:11;;;;;;;10.32;2.22;;;13.80;99.90;;;;;;5043406;28;20021;-85